Frazier Park, CA (93225)

3:39 AM PDT on April 28, 2017 (GMT -0700)
Skytop | | Change Station
Active Advisory: Wind Advisory

Elev 5591 ft 34.83 °N, 119.04 °W | Updated 8 seconds ago

Clear
Clear
39.7 °F
Feels Like 33 °F
N
10.0
Wind Variable Wind from ENE

Today
High -- | Low -- °F
--% Chance of Precip.
Yesterday
High -- | Low -- °F
Precip. -- in
Pressure 29.90 in
Visibility 10.0 miles
Clouds Overcast 3000 ft
Windchill 33 °F
Dew Point 30 °F
Humidity 69%
Rainfall 0.00 in
Snow Depth Not available.
6:08 AM 7:39 PM
Waxing Crescent, 6% visible
SPECI KSDB 281037Z AUTO 06011G17KT 10SM OVC030 08/01 A2990 RMK AO2 PK WND 03030/1002 T00780006
Pressure 29.90 in
Visibility 10.0 miles
Clouds Overcast 3000 ft
Windchill 33 °F
Dew Point 30 °F
Humidity 69%
Rainfall 0.00 in
Snow Depth Not available.
6:08 AM 7:39 PM
Waxing Crescent, 6% visible
SPECI KSDB 281037Z AUTO 06011G17KT 10SM OVC030 08/01 A2990 RMK AO2 PK WND 03030/1002 T00780006

Get Your Daily Forecast Email!

Thanks for signing up!

Be on the lookout for a verification email in your inbox.

You'll start receiving severe weather alerts in your inbox..

×

10-Day Weather Forecast

Almanac

Astronomy

Apr. 28, 2017 Rise Set
Actual Time
Civil Twilight
Nautical Twilight
Astronomical Twilight
Moon
Length of Visible Light
Length of Day
Tomorrow will be .
, % of the Moon is Illuminated

Today's Extremes

State Highs State Lows

Community

WunderPhotos

WunderBlog® & News

Nearby

Air Quality

  Air Quality AQ Index Pollutant
Not available.

Snow Depth

Station Depth Elevation

Earthquake Activity

City Distance Mag. Time & Date
Minimum magnitude displayed is 2.5.

Coastal Water Temperatures

Place Temperature

Stations

Nearby Weather Stations

Station Location Temp. Windchill Dew Point Humidity Wind Precip. Elev Updated Type
                   

Watches & Warnings

Wind Advisory
Issued: 7:45 PM PDT Apr. 27, 2017 – National Weather Service

... Wind Advisory remains in effect until 5 am PDT Friday...

* winds... northwest 20 to 30 mph with gusts up to 55 mph,
strongest over the ridges and through and below passes and
canyons.

* Timing... winds will remain gusty tonight into early Friday
morning.

* Impacts... travel will be difficult, especially for high
profile vehicles. Blowing dust may reduce visibility. Strong
winds may blow down limbs, trees, and power lines.

Precautionary/preparedness actions...

A Wind Advisory means that wind gusts of 45 mph or greater are
expected. Winds this strong can make driving difficult,
especially for high profile vehicles. Use extra caution.



Bso